createdAt,value
2022-09-14T17:05:19.888Z,10.43
2022-09-14T17:07:46.869Z,8.38
2022-09-14T17:10:13.751Z,7.53
2022-09-14T17:12:40.634Z,7.43
2022-09-14T17:15:09.545Z,8.65
2022-09-14T17:17:36.625Z,7.00
2022-09-14T17:20:04.828Z,6.15
2022-09-14T17:22:32.544Z,5.40
2022-09-14T17:24:59.719Z,5.45
2022-09-14T17:27:26.603Z,4.72
2022-09-14T17:29:54.096Z,4.28
2022-09-14T17:32:20.844Z,4.50
2022-09-14T17:34:47.910Z,3.83
2022-09-14T17:37:15.622Z,4.22
2022-09-14T17:39:42.525Z,3.58
2022-09-14T17:42:09.970Z,4.00
2022-09-14T17:44:36.967Z,3.63
2022-09-14T17:47:05.017Z,2.85
2022-09-14T17:49:32.178Z,3.05
2022-09-14T17:51:59.081Z,3.15
2022-09-14T17:54:26.057Z,3.22
2022-09-14T17:56:53.272Z,2.70
2022-09-14T17:59:21.351Z,2.40
2022-09-14T18:01:49.364Z,2.85
2022-09-14T18:04:17.573Z,3.05
2022-09-14T18:06:46.803Z,3.40
2022-09-14T18:09:16.240Z,3.80
2022-09-14T18:11:43.433Z,3.83
2022-09-14T18:14:12.843Z,3.58
2022-09-14T18:16:41.076Z,4.93
2022-09-14T18:19:08.631Z,5.32
2022-09-14T18:21:35.524Z,5.95
2022-09-14T18:24:02.858Z,6.00
2022-09-14T18:26:33.173Z,6.40
2022-09-14T18:29:00.967Z,6.22
2022-09-14T18:31:28.215Z,5.88
2022-09-14T18:33:59.236Z,6.18
2022-09-14T18:36:29.039Z,5.63
2022-09-14T18:38:57.569Z,4.95
2022-09-14T18:41:25.300Z,6.20
2022-09-14T18:43:53.220Z,5.70
2022-09-14T18:46:24.477Z,4.85
2022-09-14T18:48:56.169Z,5.53
2022-09-14T18:51:23.630Z,5.50
2022-09-14T18:53:56.947Z,5.50
2022-09-14T18:56:25.055Z,5.35
2022-09-14T18:58:52.073Z,5.68
2022-09-14T19:01:22.392Z,5.93
2022-09-14T19:03:50.251Z,6.05
2022-09-14T19:06:18.938Z,5.88
2022-09-14T19:08:46.559Z,5.25
2022-09-14T19:11:24.698Z,5.32
2022-09-14T19:13:58.999Z,4.85
2022-09-14T19:16:25.964Z,5.68
2022-09-14T19:18:53.345Z,4.88
2022-09-14T19:21:24.029Z,5.25
2022-09-14T19:24:00.556Z,5.20
2022-09-14T19:26:30.788Z,5.18
2022-09-14T19:29:00.332Z,4.57
2022-09-14T19:31:30.469Z,4.00
2022-09-14T19:33:58.954Z,4.63
2022-09-14T19:36:27.454Z,3.80
2022-09-14T19:38:57.072Z,4.07
2022-09-14T19:41:24.146Z,3.60
2022-09-14T19:43:51.059Z,3.67
2022-09-14T19:46:20.682Z,3.65
2022-09-14T19:48:47.754Z,3.72
2022-09-14T19:51:17.768Z,3.65
2022-09-14T19:53:50.222Z,3.58
2022-09-14T19:56:20.074Z,3.78
2022-09-14T19:58:49.642Z,3.47
2022-09-14T20:01:19.479Z,3.17
2022-09-14T20:03:47.740Z,3.08
2022-09-14T20:06:23.570Z,3.17
2022-09-14T20:09:06.112Z,2.90
2022-09-14T20:11:35.298Z,2.88
2022-09-14T20:14:05.220Z,2.80
2022-09-14T20:16:41.276Z,3.00
2022-09-14T20:19:13.790Z,2.13
2022-09-14T20:21:41.918Z,2.67
2022-09-14T20:24:17.678Z,2.53
2022-09-14T20:26:47.633Z,2.50
2022-09-14T20:29:16.330Z,2.60
2022-09-14T20:31:44.105Z,2.45
2022-09-14T20:34:11.731Z,2.10
2022-09-14T20:36:38.790Z,2.30
2022-09-14T20:39:06.023Z,2.03
2022-09-14T20:41:35.038Z,1.83
2022-09-14T20:44:02.504Z,1.95
2022-09-14T20:46:34.859Z,1.90
2022-09-14T20:49:04.452Z,1.92
2022-09-14T20:51:31.714Z,1.98
2022-09-14T20:53:58.587Z,2.40
2022-09-14T20:56:28.061Z,1.83
2022-09-14T20:59:00.081Z,1.65
2022-09-14T21:01:33.707Z,2.38
2022-09-14T21:04:09.681Z,2.42
2022-09-14T21:06:39.235Z,2.03
2022-09-14T21:09:07.589Z,2.65
2022-09-14T21:11:35.440Z,2.55
2022-09-14T21:14:02.732Z,2.63
2022-09-14T21:16:43.120Z,2.80
2022-09-14T21:19:13.449Z,2.90
2022-09-14T21:21:41.824Z,2.50
2022-09-14T21:24:10.690Z,2.85
2022-09-14T21:26:41.956Z,2.80
2022-09-14T21:29:13.401Z,3.58
2022-09-14T21:31:40.414Z,2.78
2022-09-14T21:34:10.024Z,2.90
2022-09-14T21:36:46.273Z,3.33
2022-09-14T21:41:44.254Z,3.50
2022-09-14T21:44:12.712Z,3.65
2022-09-14T21:46:39.793Z,3.65
2022-09-14T21:49:07.055Z,3.40
2022-09-14T21:51:36.291Z,3.70
2022-09-14T21:54:09.271Z,4.60
2022-09-14T21:56:38.726Z,3.92
2022-09-14T21:59:08.801Z,4.20
2022-09-14T22:01:36.541Z,4.10
2022-09-14T22:04:08.062Z,4.18
2022-09-14T22:06:35.610Z,3.65
2022-09-14T22:09:02.852Z,3.72
2022-09-14T22:11:34.535Z,3.97
2022-09-14T22:14:05.321Z,4.13
2022-09-14T22:19:04.387Z,4.75
2022-09-14T22:21:33.367Z,4.97
2022-09-14T22:24:02.358Z,4.25
2022-09-14T22:26:31.861Z,5.05
2022-09-14T22:28:59.582Z,6.03
2022-09-14T22:31:28.842Z,4.93
2022-09-14T22:33:57.141Z,5.40
2022-09-14T22:36:25.718Z,4.10
2022-09-14T22:38:56.133Z,3.75
2022-09-14T22:41:23.969Z,4.38
2022-09-14T22:43:50.822Z,3.80
2022-09-14T22:46:18.592Z,4.10
2022-09-14T22:48:46.162Z,4.05
2022-09-14T22:51:16.328Z,3.80
2022-09-14T22:53:43.879Z,3.65
2022-09-14T22:56:35.556Z,4.55
2022-09-14T22:59:07.918Z,4.25
2022-09-14T23:01:40.136Z,4.43
2022-09-14T23:04:12.790Z,4.93
2022-09-14T23:06:43.944Z,4.85
2022-09-14T23:11:38.954Z,3.47
2022-09-14T23:14:05.892Z,5.30
2022-09-14T23:16:32.766Z,5.30
2022-09-14T23:19:02.780Z,6.03
2022-09-14T23:21:31.185Z,5.53
2022-09-14T23:24:07.190Z,5.63
2022-09-14T23:26:34.597Z,4.75
2022-09-14T23:29:05.124Z,5.18
2022-09-14T23:31:32.806Z,4.80
2022-09-14T23:34:01.721Z,4.68
2022-09-14T23:36:30.616Z,5.20
2022-09-14T23:38:57.541Z,6.40
2022-09-14T23:41:25.929Z,6.35
2022-09-14T23:43:54.421Z,5.60
2022-09-14T23:46:22.400Z,5.97
2022-09-14T23:48:50.967Z,6.25
2022-09-14T23:51:18.220Z,5.35
2022-09-14T23:53:45.848Z,5.93
2022-09-14T23:56:13.321Z,5.25
2022-09-14T23:58:41.906Z,4.57
